sensor_id;sensor_type;location;lat;lon;timestamp;P1;durP1;ratioP1;P2;durP2;ratioP2
22774;SDS011;11554;51.106;3.684;2024-01-25T00:00:00;53.60;;;8.00;;
22774;SDS011;11554;51.106;3.684;2024-01-25T00:05:00;53.60;;;8.00;;
22774;SDS011;11554;51.106;3.684;2024-01-25T00:10:00;41.90;;;7.40;;
22774;SDS011;11554;51.106;3.684;2024-01-25T00:15:00;41.90;;;7.40;;
22774;SDS011;11554;51.106;3.684;2024-01-25T00:20:00;41.50;;;7.20;;
22774;SDS011;11554;51.106;3.684;2024-01-25T00:25:00;41.50;;;7.20;;
22774;SDS011;11554;51.106;3.684;2024-01-25T00:30:00;46.40;;;7.20;;
22774;SDS011;11554;51.106;3.684;2024-01-25T00:35:02;46.40;;;7.20;;
22774;SDS011;11554;51.106;3.684;2024-01-25T00:40:00;44.00;;;7.20;;
22774;SDS011;11554;51.106;3.684;2024-01-25T00:45:01;44.00;;;7.20;;
22774;SDS011;11554;51.106;3.684;2024-01-25T00:50:00;46.20;;;7.20;;
22774;SDS011;11554;51.106;3.684;2024-01-25T00:55:00;46.20;;;7.20;;
22774;SDS011;11554;51.106;3.684;2024-01-25T01:00:00;46.00;;;7.80;;
22774;SDS011;11554;51.106;3.684;2024-01-25T01:05:00;46.00;;;7.80;;
22774;SDS011;11554;51.106;3.684;2024-01-25T01:10:00;45.80;;;7.30;;
22774;SDS011;11554;51.106;3.684;2024-01-25T01:15:00;45.80;;;7.30;;
22774;SDS011;11554;51.106;3.684;2024-01-25T01:20:00;42.40;;;7.10;;
22774;SDS011;11554;51.106;3.684;2024-01-25T01:25:00;42.40;;;7.10;;
22774;SDS011;11554;51.106;3.684;2024-01-25T01:30:00;41.20;;;6.50;;
22774;SDS011;11554;51.106;3.684;2024-01-25T01:35:00;41.20;;;6.50;;
22774;SDS011;11554;51.106;3.684;2024-01-25T01:40:00;45.90;;;7.50;;
22774;SDS011;11554;51.106;3.684;2024-01-25T01:45:00;45.90;;;7.50;;
22774;SDS011;11554;51.106;3.684;2024-01-25T01:50:01;46.10;;;6.80;;
22774;SDS011;11554;51.106;3.684;2024-01-25T01:55:00;46.10;;;6.80;;
22774;SDS011;11554;51.106;3.684;2024-01-25T02:00:03;42.60;;;7.00;;
22774;SDS011;11554;51.106;3.684;2024-01-25T02:05:00;42.60;;;7.00;;
22774;SDS011;11554;51.106;3.684;2024-01-25T02:10:00;43.50;;;7.50;;
22774;SDS011;11554;51.106;3.684;2024-01-25T02:15:00;43.50;;;7.50;;
22774;SDS011;11554;51.106;3.684;2024-01-25T02:20:00;38.70;;;6.10;;
22774;SDS011;11554;51.106;3.684;2024-01-25T02:25:00;38.70;;;6.10;;
22774;SDS011;11554;51.106;3.684;2024-01-25T02:30:00;44.20;;;6.40;;
22774;SDS011;11554;51.106;3.684;2024-01-25T02:35:00;44.20;;;6.40;;
22774;SDS011;11554;51.106;3.684;2024-01-25T02:40:00;40.60;;;6.40;;
22774;SDS011;11554;51.106;3.684;2024-01-25T02:45:00;40.60;;;6.40;;
22774;SDS011;11554;51.106;3.684;2024-01-25T02:50:00;32.30;;;6.00;;
22774;SDS011;11554;51.106;3.684;2024-01-25T02:55:00;32.30;;;6.00;;
22774;SDS011;11554;51.106;3.684;2024-01-25T03:00:01;30.80;;;5.80;;
22774;SDS011;11554;51.106;3.684;2024-01-25T03:05:00;30.80;;;5.80;;
22774;SDS011;11554;51.106;3.684;2024-01-25T03:10:00;30.60;;;6.40;;
22774;SDS011;11554;51.106;3.684;2024-01-25T03:15:00;30.60;;;6.40;;
22774;SDS011;11554;51.106;3.684;2024-01-25T03:20:00;41.60;;;7.00;;
22774;SDS011;11554;51.106;3.684;2024-01-25T03:25:00;41.60;;;7.00;;
22774;SDS011;11554;51.106;3.684;2024-01-25T03:30:00;36.60;;;5.90;;
22774;SDS011;11554;51.106;3.684;2024-01-25T03:35:00;36.60;;;5.90;;
22774;SDS011;11554;51.106;3.684;2024-01-25T03:40:00;37.30;;;6.20;;
22774;SDS011;11554;51.106;3.684;2024-01-25T03:45:00;37.30;;;6.20;;
22774;SDS011;11554;51.106;3.684;2024-01-25T03:50:00;40.20;;;7.20;;
22774;SDS011;11554;51.106;3.684;2024-01-25T03:55:00;40.20;;;7.20;;
22774;SDS011;11554;51.106;3.684;2024-01-25T04:00:00;35.70;;;6.60;;
22774;SDS011;11554;51.106;3.684;2024-01-25T04:05:00;35.70;;;6.60;;
22774;SDS011;11554;51.106;3.684;2024-01-25T04:10:00;31.20;;;5.50;;
22774;SDS011;11554;51.106;3.684;2024-01-25T04:15:00;31.20;;;5.50;;
22774;SDS011;11554;51.106;3.684;2024-01-25T04:20:00;48.40;;;7.50;;
22774;SDS011;11554;51.106;3.684;2024-01-25T04:25:00;48.40;;;7.50;;
22774;SDS011;11554;51.106;3.684;2024-01-25T04:30:01;37.60;;;7.30;;
22774;SDS011;11554;51.106;3.684;2024-01-25T04:35:00;37.60;;;7.30;;
22774;SDS011;11554;51.106;3.684;2024-01-25T04:40:00;35.80;;;6.10;;
22774;SDS011;11554;51.106;3.684;2024-01-25T04:45:00;35.80;;;6.10;;
22774;SDS011;11554;51.106;3.684;2024-01-25T04:50:00;33.70;;;6.70;;
22774;SDS011;11554;51.106;3.684;2024-01-25T04:55:00;33.70;;;6.70;;
22774;SDS011;11554;51.106;3.684;2024-01-25T05:00:00;31.00;;;6.10;;
22774;SDS011;11554;51.106;3.684;2024-01-25T05:05:00;31.00;;;6.10;;
22774;SDS011;11554;51.106;3.684;2024-01-25T05:10:00;25.30;;;5.40;;
22774;SDS011;11554;51.106;3.684;2024-01-25T05:15:00;25.30;;;5.40;;
22774;SDS011;11554;51.106;3.684;2024-01-25T05:20:00;37.00;;;6.70;;
22774;SDS011;11554;51.106;3.684;2024-01-25T05:25:00;37.00;;;6.70;;
22774;SDS011;11554;51.106;3.684;2024-01-25T05:30:00;33.60;;;6.80;;
22774;SDS011;11554;51.106;3.684;2024-01-25T05:35:00;33.60;;;6.80;;
22774;SDS011;11554;51.106;3.684;2024-01-25T05:40:00;37.30;;;6.30;;
22774;SDS011;11554;51.106;3.684;2024-01-25T05:45:01;37.30;;;6.30;;
22774;SDS011;11554;51.106;3.684;2024-01-25T05:50:00;31.70;;;6.40;;
22774;SDS011;11554;51.106;3.684;2024-01-25T05:55:00;31.70;;;6.40;;
22774;SDS011;11554;51.106;3.684;2024-01-25T06:00:00;41.00;;;7.40;;
22774;SDS011;11554;51.106;3.684;2024-01-25T06:05:00;41.00;;;7.40;;
22774;SDS011;11554;51.106;3.684;2024-01-25T06:10:00;38.40;;;8.40;;
22774;SDS011;11554;51.106;3.684;2024-01-25T06:15:00;38.40;;;8.40;;
22774;SDS011;11554;51.106;3.684;2024-01-25T06:20:01;41.80;;;8.50;;
22774;SDS011;11554;51.106;3.684;2024-01-25T06:25:00;41.80;;;8.50;;
22774;SDS011;11554;51.106;3.684;2024-01-25T06:30:00;40.60;;;7.40;;
22774;SDS011;11554;51.106;3.684;2024-01-25T06:35:00;40.60;;;7.40;;
22774;SDS011;11554;51.106;3.684;2024-01-25T06:40:00;41.00;;;7.80;;
22774;SDS011;11554;51.106;3.684;2024-01-25T06:45:00;41.00;;;7.80;;
22774;SDS011;11554;51.106;3.684;2024-01-25T06:50:00;47.00;;;7.70;;
22774;SDS011;11554;51.106;3.684;2024-01-25T06:55:00;47.00;;;7.70;;
22774;SDS011;11554;51.106;3.684;2024-01-25T07:00:00;45.30;;;7.90;;
22774;SDS011;11554;51.106;3.684;2024-01-25T07:05:00;45.30;;;7.90;;
22774;SDS011;11554;51.106;3.684;2024-01-25T07:10:00;31.40;;;6.30;;
22774;SDS011;11554;51.106;3.684;2024-01-25T07:15:00;31.40;;;6.30;;
22774;SDS011;11554;51.106;3.684;2024-01-25T07:20:00;41.60;;;7.30;;
22774;SDS011;11554;51.106;3.684;2024-01-25T07:25:00;41.60;;;7.30;;
22774;SDS011;11554;51.106;3.684;2024-01-25T07:30:00;43.60;;;8.30;;
22774;SDS011;11554;51.106;3.684;2024-01-25T07:35:00;43.60;;;8.30;;
22774;SDS011;11554;51.106;3.684;2024-01-25T07:40:00;48.10;;;9.70;;
22774;SDS011;11554;51.106;3.684;2024-01-25T07:45:00;48.10;;;9.70;;
22774;SDS011;11554;51.106;3.684;2024-01-25T07:50:00;33.40;;;8.80;;
22774;SDS011;11554;51.106;3.684;2024-01-25T07:55:00;33.40;;;8.80;;
22774;SDS011;11554;51.106;3.684;2024-01-25T08:00:00;57.60;;;9.70;;
22774;SDS011;11554;51.106;3.684;2024-01-25T08:05:00;57.60;;;9.70;;
22774;SDS011;11554;51.106;3.684;2024-01-25T08:10:00;57.70;;;11.30;;
22774;SDS011;11554;51.106;3.684;2024-01-25T08:15:00;57.70;;;11.30;;
22774;SDS011;11554;51.106;3.684;2024-01-25T08:20:00;33.10;;;11.50;;
22774;SDS011;11554;51.106;3.684;2024-01-25T08:25:00;33.10;;;11.50;;
22774;SDS011;11554;51.106;3.684;2024-01-25T08:30:00;42.00;;;11.20;;
22774;SDS011;11554;51.106;3.684;2024-01-25T08:35:00;42.00;;;11.20;;
22774;SDS011;11554;51.106;3.684;2024-01-25T08:40:00;63.90;;;12.60;;
22774;SDS011;11554;51.106;3.684;2024-01-25T08:45:01;63.90;;;12.60;;
22774;SDS011;11554;51.106;3.684;2024-01-25T08:50:00;56.60;;;12.70;;
22774;SDS011;11554;51.106;3.684;2024-01-25T08:55:00;56.60;;;12.70;;
22774;SDS011;11554;51.106;3.684;2024-01-25T09:00:00;92.70;;;27.30;;
22774;SDS011;11554;51.106;3.684;2024-01-25T09:05:00;92.70;;;27.30;;
22774;SDS011;11554;51.106;3.684;2024-01-25T09:10:00;56.10;;;14.70;;
22774;SDS011;11554;51.106;3.684;2024-01-25T09:15:01;56.10;;;14.70;;
22774;SDS011;11554;51.106;3.684;2024-01-25T09:20:00;48.80;;;15.80;;
22774;SDS011;11554;51.106;3.684;2024-01-25T09:25:00;48.80;;;15.80;;
22774;SDS011;11554;51.106;3.684;2024-01-25T09:30:00;37.90;;;14.80;;
22774;SDS011;11554;51.106;3.684;2024-01-25T09:35:00;37.90;;;14.80;;
22774;SDS011;11554;51.106;3.684;2024-01-25T09:40:00;40.30;;;17.90;;
22774;SDS011;11554;51.106;3.684;2024-01-25T09:45:00;40.30;;;17.90;;
22774;SDS011;11554;51.106;3.684;2024-01-25T09:50:00;49.60;;;16.90;;
22774;SDS011;11554;51.106;3.684;2024-01-25T09:55:01;49.60;;;16.90;;
22774;SDS011;11554;51.106;3.684;2024-01-25T10:00:00;43.10;;;16.60;;
22774;SDS011;11554;51.106;3.684;2024-01-25T10:05:00;43.10;;;16.60;;
22774;SDS011;11554;51.106;3.684;2024-01-25T10:10:00;49.10;;;14.90;;
22774;SDS011;11554;51.106;3.684;2024-01-25T10:15:00;49.10;;;14.90;;
22774;SDS011;11554;51.106;3.684;2024-01-25T10:20:00;45.80;;;15.70;;
22774;SDS011;11554;51.106;3.684;2024-01-25T10:25:00;45.80;;;15.70;;
22774;SDS011;11554;51.106;3.684;2024-01-25T10:30:00;46.30;;;15.10;;
22774;SDS011;11554;51.106;3.684;2024-01-25T10:35:01;46.30;;;15.10;;
22774;SDS011;11554;51.106;3.684;2024-01-25T10:40:01;37.10;;;14.90;;
22774;SDS011;11554;51.106;3.684;2024-01-25T10:45:00;37.10;;;14.90;;
22774;SDS011;11554;51.106;3.684;2024-01-25T10:50:01;35.60;;;14.80;;
22774;SDS011;11554;51.106;3.684;2024-01-25T10:55:01;35.60;;;14.80;;
22774;SDS011;11554;51.106;3.684;2024-01-25T11:00:01;38.70;;;15.20;;
22774;SDS011;11554;51.106;3.684;2024-01-25T11:05:00;38.70;;;15.20;;
22774;SDS011;11554;51.106;3.684;2024-01-25T11:10:00;62.20;;;29.10;;
22774;SDS011;11554;51.106;3.684;2024-01-25T11:15:06;62.20;;;29.10;;
22774;SDS011;11554;51.106;3.684;2024-01-25T11:20:02;44.30;;;14.50;;
22774;SDS011;11554;51.106;3.684;2024-01-25T11:25:11;44.30;;;14.50;;
22774;SDS011;11554;51.106;3.684;2024-01-25T11:30:00;45.80;;;14.60;;
22774;SDS011;11554;51.106;3.684;2024-01-25T11:35:00;45.80;;;14.60;;
22774;SDS011;11554;51.106;3.684;2024-01-25T11:40:00;65.30;;;29.60;;
22774;SDS011;11554;51.106;3.684;2024-01-25T11:45:00;65.30;;;29.60;;
22774;SDS011;11554;51.106;3.684;2024-01-25T11:50:00;35.30;;;14.10;;
22774;SDS011;11554;51.106;3.684;2024-01-25T11:55:01;35.30;;;14.10;;
22774;SDS011;11554;51.106;3.684;2024-01-25T12:00:01;27.20;;;12.00;;
22774;SDS011;11554;51.106;3.684;2024-01-25T12:05:01;27.20;;;12.00;;
22774;SDS011;11554;51.106;3.684;2024-01-25T12:10:02;22.80;;;11.80;;
22774;SDS011;11554;51.106;3.684;2024-01-25T12:15:01;22.80;;;11.80;;
22774;SDS011;11554;51.106;3.684;2024-01-25T12:20:00;19.30;;;10.00;;
22774;SDS011;11554;51.106;3.684;2024-01-25T12:25:00;19.30;;;10.00;;
22774;SDS011;11554;51.106;3.684;2024-01-25T12:30:00;12.50;;;7.00;;
22774;SDS011;11554;51.106;3.684;2024-01-25T12:35:01;12.50;;;7.00;;
22774;SDS011;11554;51.106;3.684;2024-01-25T12:40:00;13.60;;;6.70;;
22774;SDS011;11554;51.106;3.684;2024-01-25T12:45:00;13.60;;;6.70;;
22774;SDS011;11554;51.106;3.684;2024-01-25T12:50:00;11.60;;;7.00;;
22774;SDS011;11554;51.106;3.684;2024-01-25T12:55:00;11.60;;;7.00;;
22774;SDS011;11554;51.106;3.684;2024-01-25T13:00:00;12.90;;;7.00;;
22774;SDS011;11554;51.106;3.684;2024-01-25T13:05:00;12.90;;;7.00;;
22774;SDS011;11554;51.106;3.684;2024-01-25T13:10:00;9.40;;;6.40;;
22774;SDS011;11554;51.106;3.684;2024-01-25T13:15:00;9.40;;;6.40;;
22774;SDS011;11554;51.106;3.684;2024-01-25T13:20:00;9.40;;;6.60;;
22774;SDS011;11554;51.106;3.684;2024-01-25T13:25:00;9.40;;;6.60;;
22774;SDS011;11554;51.106;3.684;2024-01-25T13:30:00;13.90;;;6.90;;
22774;SDS011;11554;51.106;3.684;2024-01-25T13:35:00;13.90;;;6.90;;
22774;SDS011;11554;51.106;3.684;2024-01-25T13:40:00;13.40;;;8.20;;
22774;SDS011;11554;51.106;3.684;2024-01-25T13:45:00;13.40;;;8.20;;
22774;SDS011;11554;51.106;3.684;2024-01-25T13:50:00;15.80;;;9.30;;
22774;SDS011;11554;51.106;3.684;2024-01-25T13:55:00;15.80;;;9.30;;
22774;SDS011;11554;51.106;3.684;2024-01-25T14:00:00;17.40;;;10.50;;
22774;SDS011;11554;51.106;3.684;2024-01-25T14:05:01;17.40;;;10.50;;
22774;SDS011;11554;51.106;3.684;2024-01-25T14:10:00;20.90;;;12.60;;
22774;SDS011;11554;51.106;3.684;2024-01-25T14:15:00;20.90;;;12.60;;
22774;SDS011;11554;51.106;3.684;2024-01-25T14:20:00;27.10;;;15.80;;
22774;SDS011;11554;51.106;3.684;2024-01-25T14:25:00;27.10;;;15.80;;
22774;SDS011;11554;51.106;3.684;2024-01-25T14:30:00;23.40;;;14.30;;
22774;SDS011;11554;51.106;3.684;2024-01-25T14:35:00;23.40;;;14.30;;
22774;SDS011;11554;51.106;3.684;2024-01-25T14:40:00;26.40;;;15.90;;
22774;SDS011;11554;51.106;3.684;2024-01-25T14:45:00;26.40;;;15.90;;
22774;SDS011;11554;51.106;3.684;2024-01-25T14:50:00;28.00;;;17.40;;
22774;SDS011;11554;51.106;3.684;2024-01-25T14:55:00;28.00;;;17.40;;
22774;SDS011;11554;51.106;3.684;2024-01-25T15:00:00;28.50;;;17.10;;
22774;SDS011;11554;51.106;3.684;2024-01-25T15:05:00;28.50;;;17.10;;
22774;SDS011;11554;51.106;3.684;2024-01-25T15:10:00;31.10;;;17.00;;
22774;SDS011;11554;51.106;3.684;2024-01-25T15:15:00;31.10;;;17.00;;
22774;SDS011;11554;51.106;3.684;2024-01-25T15:20:00;27.40;;;15.30;;
22774;SDS011;11554;51.106;3.684;2024-01-25T15:25:00;27.40;;;15.30;;
22774;SDS011;11554;51.106;3.684;2024-01-25T15:30:00;33.70;;;18.20;;
22774;SDS011;11554;51.106;3.684;2024-01-25T15:35:01;33.70;;;18.20;;
22774;SDS011;11554;51.106;3.684;2024-01-25T15:40:00;35.20;;;18.00;;
22774;SDS011;11554;51.106;3.684;2024-01-25T15:45:00;35.20;;;18.00;;
22774;SDS011;11554;51.106;3.684;2024-01-25T15:50:00;33.10;;;18.20;;
22774;SDS011;11554;51.106;3.684;2024-01-25T15:55:00;33.10;;;18.20;;
22774;SDS011;11554;51.106;3.684;2024-01-25T16:00:00;30.90;;;17.20;;
22774;SDS011;11554;51.106;3.684;2024-01-25T16:05:00;30.90;;;17.20;;
22774;SDS011;11554;51.106;3.684;2024-01-25T16:10:00;29.20;;;16.20;;
22774;SDS011;11554;51.106;3.684;2024-01-25T16:15:00;29.20;;;16.20;;
22774;SDS011;11554;51.106;3.684;2024-01-25T16:20:00;28.10;;;14.80;;
22774;SDS011;11554;51.106;3.684;2024-01-25T16:25:00;28.10;;;14.80;;
22774;SDS011;11554;51.106;3.684;2024-01-25T16:30:00;24.20;;;14.30;;
22774;SDS011;11554;51.106;3.684;2024-01-25T16:35:00;24.20;;;14.30;;
22774;SDS011;11554;51.106;3.684;2024-01-25T16:40:00;24.00;;;13.50;;
22774;SDS011;11554;51.106;3.684;2024-01-25T16:45:00;24.00;;;13.50;;
22774;SDS011;11554;51.106;3.684;2024-01-25T16:50:00;23.90;;;14.20;;
22774;SDS011;11554;51.106;3.684;2024-01-25T16:55:00;23.90;;;14.20;;
22774;SDS011;11554;51.106;3.684;2024-01-25T17:00:00;29.20;;;16.00;;
22774;SDS011;11554;51.106;3.684;2024-01-25T17:05:00;29.20;;;16.00;;
22774;SDS011;11554;51.106;3.684;2024-01-25T17:10:00;32.10;;;16.90;;
22774;SDS011;11554;51.106;3.684;2024-01-25T17:15:00;32.10;;;16.90;;
22774;SDS011;11554;51.106;3.684;2024-01-25T17:20:01;31.00;;;17.90;;
22774;SDS011;11554;51.106;3.684;2024-01-25T17:25:00;31.00;;;17.90;;
22774;SDS011;11554;51.106;3.684;2024-01-25T17:30:00;30.00;;;18.70;;
22774;SDS011;11554;51.106;3.684;2024-01-25T17:35:01;30.00;;;18.70;;
22774;SDS011;11554;51.106;3.684;2024-01-25T17:40:00;32.30;;;18.20;;
22774;SDS011;11554;51.106;3.684;2024-01-25T17:45:00;32.30;;;18.20;;
22774;SDS011;11554;51.106;3.684;2024-01-25T17:50:00;31.60;;;18.20;;
22774;SDS011;11554;51.106;3.684;2024-01-25T17:55:00;31.60;;;18.20;;
22774;SDS011;11554;51.106;3.684;2024-01-25T18:00:00;28.20;;;16.20;;
22774;SDS011;11554;51.106;3.684;2024-01-25T18:05:00;28.20;;;16.20;;
22774;SDS011;11554;51.106;3.684;2024-01-25T18:10:00;25.70;;;16.10;;
22774;SDS011;11554;51.106;3.684;2024-01-25T18:15:00;25.70;;;16.10;;
22774;SDS011;11554;51.106;3.684;2024-01-25T18:20:00;28.80;;;18.40;;
22774;SDS011;11554;51.106;3.684;2024-01-25T18:25:01;28.80;;;18.40;;
22774;SDS011;11554;51.106;3.684;2024-01-25T18:30:00;21.90;;;13.80;;
22774;SDS011;11554;51.106;3.684;2024-01-25T18:35:00;21.90;;;13.80;;
22774;SDS011;11554;51.106;3.684;2024-01-25T18:40:00;17.60;;;10.60;;
22774;SDS011;11554;51.106;3.684;2024-01-25T18:45:02;17.60;;;10.60;;
22774;SDS011;11554;51.106;3.684;2024-01-25T18:50:00;14.70;;;10.20;;
22774;SDS011;11554;51.106;3.684;2024-01-25T18:55:01;14.70;;;10.20;;
22774;SDS011;11554;51.106;3.684;2024-01-25T19:00:00;14.10;;;9.50;;
22774;SDS011;11554;51.106;3.684;2024-01-25T19:05:01;14.10;;;9.50;;
22774;SDS011;11554;51.106;3.684;2024-01-25T19:10:00;12.60;;;8.10;;
22774;SDS011;11554;51.106;3.684;2024-01-25T19:15:00;12.60;;;8.10;;
22774;SDS011;11554;51.106;3.684;2024-01-25T19:20:00;12.60;;;8.50;;
22774;SDS011;11554;51.106;3.684;2024-01-25T19:25:00;12.60;;;8.50;;
22774;SDS011;11554;51.106;3.684;2024-01-25T19:30:00;10.20;;;8.00;;
22774;SDS011;11554;51.106;3.684;2024-01-25T19:35:00;10.20;;;8.00;;
22774;SDS011;11554;51.106;3.684;2024-01-25T19:40:00;15.60;;;8.30;;
22774;SDS011;11554;51.106;3.684;2024-01-25T19:45:00;15.60;;;8.30;;
22774;SDS011;11554;51.106;3.684;2024-01-25T19:50:00;12.70;;;8.10;;
22774;SDS011;11554;51.106;3.684;2024-01-25T19:55:00;12.70;;;8.10;;
22774;SDS011;11554;51.106;3.684;2024-01-25T20:00:00;12.50;;;8.20;;
22774;SDS011;11554;51.106;3.684;2024-01-25T20:05:01;12.50;;;8.20;;
22774;SDS011;11554;51.106;3.684;2024-01-25T20:10:01;13.00;;;8.70;;
22774;SDS011;11554;51.106;3.684;2024-01-25T20:15:00;13.00;;;8.70;;
22774;SDS011;11554;51.106;3.684;2024-01-25T20:20:00;14.10;;;10.00;;
22774;SDS011;11554;51.106;3.684;2024-01-25T20:25:01;14.10;;;10.00;;
22774;SDS011;11554;51.106;3.684;2024-01-25T20:30:00;13.70;;;10.10;;
22774;SDS011;11554;51.106;3.684;2024-01-25T20:35:00;13.70;;;10.10;;
22774;SDS011;11554;51.106;3.684;2024-01-25T20:40:00;14.60;;;10.40;;
22774;SDS011;11554;51.106;3.684;2024-01-25T20:45:00;14.60;;;10.40;;
22774;SDS011;11554;51.106;3.684;2024-01-25T20:50:00;16.70;;;10.80;;
22774;SDS011;11554;51.106;3.684;2024-01-25T20:55:00;16.70;;;10.80;;
22774;SDS011;11554;51.106;3.684;2024-01-25T21:00:00;15.10;;;11.20;;
22774;SDS011;11554;51.106;3.684;2024-01-25T21:05:01;15.10;;;11.20;;
22774;SDS011;11554;51.106;3.684;2024-01-25T21:10:01;15.50;;;10.70;;
22774;SDS011;11554;51.106;3.684;2024-01-25T21:15:00;15.50;;;10.70;;
22774;SDS011;11554;51.106;3.684;2024-01-25T21:20:00;16.00;;;12.80;;
22774;SDS011;11554;51.106;3.684;2024-01-25T21:25:00;16.00;;;12.80;;
22774;SDS011;11554;51.106;3.684;2024-01-25T21:30:00;18.10;;;15.00;;
22774;SDS011;11554;51.106;3.684;2024-01-25T21:35:00;18.10;;;15.00;;
22774;SDS011;11554;51.106;3.684;2024-01-25T21:40:00;17.80;;;14.40;;
22774;SDS011;11554;51.106;3.684;2024-01-25T21:45:00;17.80;;;14.40;;
22774;SDS011;11554;51.106;3.684;2024-01-25T21:50:00;20.90;;;16.30;;
22774;SDS011;11554;51.106;3.684;2024-01-25T21:55:00;20.90;;;16.30;;
22774;SDS011;11554;51.106;3.684;2024-01-25T22:00:00;22.10;;;17.50;;
22774;SDS011;11554;51.106;3.684;2024-01-25T22:05:00;22.10;;;17.50;;
22774;SDS011;11554;51.106;3.684;2024-01-25T22:10:00;21.60;;;16.50;;
22774;SDS011;11554;51.106;3.684;2024-01-25T22:15:00;21.60;;;16.50;;
22774;SDS011;11554;51.106;3.684;2024-01-25T22:20:00;17.80;;;15.30;;
22774;SDS011;11554;51.106;3.684;2024-01-25T22:25:00;17.80;;;15.30;;
22774;SDS011;11554;51.106;3.684;2024-01-25T22:30:00;18.30;;;13.60;;
22774;SDS011;11554;51.106;3.684;2024-01-25T22:35:00;18.30;;;13.60;;
22774;SDS011;11554;51.106;3.684;2024-01-25T22:40:00;20.10;;;13.00;;
22774;SDS011;11554;51.106;3.684;2024-01-25T22:45:00;20.10;;;13.00;;
22774;SDS011;11554;51.106;3.684;2024-01-25T22:50:00;18.90;;;14.00;;
22774;SDS011;11554;51.106;3.684;2024-01-25T22:55:00;18.90;;;14.00;;
22774;SDS011;11554;51.106;3.684;2024-01-25T23:00:00;15.50;;;12.20;;
22774;SDS011;11554;51.106;3.684;2024-01-25T23:05:00;15.50;;;12.20;;
22774;SDS011;11554;51.106;3.684;2024-01-25T23:10:00;14.50;;;10.80;;
22774;SDS011;11554;51.106;3.684;2024-01-25T23:15:00;14.50;;;10.80;;
22774;SDS011;11554;51.106;3.684;2024-01-25T23:20:00;11.40;;;8.40;;
22774;SDS011;11554;51.106;3.684;2024-01-25T23:25:01;11.40;;;8.40;;
22774;SDS011;11554;51.106;3.684;2024-01-25T23:30:00;10.10;;;6.60;;
22774;SDS011;11554;51.106;3.684;2024-01-25T23:35:00;10.10;;;6.60;;
22774;SDS011;11554;51.106;3.684;2024-01-25T23:40:00;11.00;;;5.40;;
22774;SDS011;11554;51.106;3.684;2024-01-25T23:45:00;11.00;;;5.40;;
22774;SDS011;11554;51.106;3.684;2024-01-25T23:50:00;7.00;;;4.70;;
22774;SDS011;11554;51.106;3.684;2024-01-25T23:55:00;7.00;;;4.70;;
